Slater, CO (81653)

5:19 AM MDT on October 24, 2014 (GMT -0600)
Dixon AP, Dixon, WY | Change Station
CLOSE
Current Station
Airport
Location: Dixon AP, Dixon, WY,
Elevation: 6549 ft
Nearby Weather Stations

Elev 6549 ft 41.04 °N, 107.49 °W | Updated 44 minutes ago

Clear
Clear
45 °F
Feels Like 44 °F
N
4
Wind Variable Wind from North

Today
High -- | Low -- °F
--% Chance of Precip.
Yesterday
High -- | Low -- °F
Precip. -- in
7:31 AM 6:16 PM
New Moon, 0% visible
Pressure 30.26 in
Visibility 10.0 miles
Clouds Clear
Windchill 44 °F
Dew Point 33 °F
Humidity 63%
Rainfall 0.00 in
Snow Depth Not available.
UV 0 out of 12
Pollen 3.50 out of 12
Air Quality Not available.
Flu Activity Sporadic
METAR KDWX 241035Z AUTO 35003KT 10SM CLR 07/01 A3026 RMK AO2 T00720006

More Conditions Fewer Conditions

Pressure 30.26 in
Visibility 10.0 miles
Clouds Clear
Windchill 44 °F
Dew Point 33 °F
Humidity 63%
Rainfall 0.00 in
Snow Depth Not available.
UV 0 out of 12
Pollen 3.50 out of 12
Air Quality Not available.
Flu Activity Sporadic
METAR KDWX 241035Z AUTO 35003KT 10SM CLR 07/01 A3026 RMK AO2 T00720006

More Conditions Fewer Conditions

10-Day Weather Forecast

Almanac

Astronomy

Oct. 24, 2014 Rise Set
Actual Time 7:31 AM MDT 6:16 PM MDT
Civil Twilight 7:03 AM MDT 6:44 PM MDT
Nautical Twilight 6:31 AM MDT 7:16 PM MDT
Astronomical Twilight 5:59 AM MDT 7:48 PM MDT
Moon 8:13 AM MDT 6:57 PM MDT
Length of Visible Light 11h 40m
Length of Day
10h 44m
Tomorrow will be 2m 31s shorter.
New Moon, 0% of the Moon is Illuminated
Today
New Moon
Oct 30
First Quarter
Nov 6
Full
Nov 14
Last Quarter
Nov 22
New

Today's Extremes

State Highs State Lows

Community

WunderPhotos

Upload Photos

1,764,518 photos uploaded!

WunderBlogs® & News

Nearby

Snow Depth

Station Depth Elevation
Elk River 0 in 8700 ft
Lost Dog 0 in 9320 ft
Dry Lake 0 in 8400 ft
Zirkel 0 in 9340 ft
Tower 0 in 10500 ft

Earthquake Activity

City Distance Mag. Time & Date
No recent earthquake activity has been reported nearby.
Minimum magnitude displayed is 2.5.

Coastal Water Temperatures

Place Temperature
No Stations Reporting

Nearby Weather Stations